createdAt,value
2019-01-15T00:01:50.874Z,58.46
2019-01-15T00:04:17.125Z,58.57
2019-01-15T00:06:43.129Z,58.91
2019-01-15T00:09:09.072Z,59.07
2019-01-15T00:11:35.249Z,58.73
2019-01-15T00:14:01.217Z,58.70
2019-01-15T00:16:27.162Z,58.20
2019-01-15T00:18:53.100Z,57.76
2019-01-15T00:21:19.319Z,57.61
2019-01-15T00:23:45.460Z,57.61
2019-01-15T00:26:11.514Z,57.60
2019-01-15T00:28:38.527Z,57.61
2019-01-15T00:31:04.610Z,57.57
2019-01-15T00:33:30.987Z,57.48
2019-01-15T00:35:57.008Z,57.66
2019-01-15T00:38:23.067Z,57.81
2019-01-15T00:40:49.021Z,57.92
2019-01-15T00:43:14.987Z,58.08
2019-01-15T00:45:41.248Z,57.88
2019-01-15T00:48:07.385Z,57.71
2019-01-15T00:50:33.591Z,57.47
2019-01-15T00:52:59.544Z,57.44
2019-01-15T00:55:25.792Z,57.50
2019-01-15T00:57:52.468Z,57.53
2019-01-15T01:00:20.111Z,57.68
2019-01-15T01:02:46.548Z,57.91
2019-01-15T01:05:13.030Z,57.80
2019-01-15T01:07:39.006Z,57.69
2019-01-15T01:10:08.419Z,57.81
2019-01-15T01:12:34.458Z,57.88
2019-01-15T01:15:00.397Z,58.08
2019-01-15T01:17:26.353Z,58.25
2019-01-15T01:19:52.356Z,58.43
2019-01-15T01:22:18.478Z,58.52
2019-01-15T01:24:44.530Z,58.54
2019-01-15T01:27:10.548Z,58.60
2019-01-15T01:29:36.550Z,58.63
2019-01-15T01:32:03.603Z,58.74
2019-01-15T01:34:29.607Z,58.81
2019-01-15T01:36:55.594Z,59.02
2019-01-15T01:39:21.557Z,59.13
2019-01-15T01:41:47.541Z,59.28
2019-01-15T01:44:13.619Z,59.19
2019-01-15T01:46:39.561Z,59.25
2019-01-15T01:49:06.157Z,59.40
2019-01-15T01:51:32.528Z,59.58
2019-01-15T01:53:58.767Z,59.57
2019-01-15T01:56:24.776Z,59.54
2019-01-15T01:58:50.924Z,59.62
2019-01-15T02:01:16.892Z,59.58
2019-01-15T02:03:42.869Z,59.45
2019-01-15T02:06:08.845Z,59.37
2019-01-15T02:08:34.785Z,59.26
2019-01-15T02:11:00.831Z,58.95
2019-01-15T02:13:27.239Z,58.96
2019-01-15T02:15:53.178Z,58.94
2019-01-15T02:18:19.187Z,58.69
2019-01-15T02:20:45.136Z,58.54
2019-01-15T02:23:11.081Z,58.42
2019-01-15T02:25:37.054Z,58.57
2019-01-15T02:28:03.190Z,58.49
2019-01-15T02:30:30.344Z,58.40
2019-01-15T02:32:56.328Z,58.13
2019-01-15T02:35:22.374Z,57.93
2019-01-15T02:37:51.185Z,58.00
2019-01-15T02:40:17.304Z,58.12
2019-01-15T02:42:46.982Z,58.19
2019-01-15T02:45:14.010Z,58.38
2019-01-15T02:47:39.984Z,58.30
2019-01-15T02:50:09.334Z,58.28
2019-01-15T02:52:37.074Z,58.43
2019-01-15T02:55:06.158Z,58.55
2019-01-15T02:57:32.200Z,58.58
2019-01-15T02:59:58.194Z,58.44
2019-01-15T03:02:24.208Z,58.21
2019-01-15T03:04:50.157Z,58.17
2019-01-15T03:07:16.411Z,58.25
2019-01-15T03:09:42.398Z,58.38
2019-01-15T03:12:08.338Z,58.58
2019-01-15T03:14:36.214Z,58.65
2019-01-15T03:17:02.393Z,58.88
2019-01-15T03:19:28.833Z,59.04
2019-01-15T03:21:55.300Z,59.31
2019-01-15T03:24:23.451Z,59.49
2019-01-15T03:26:49.423Z,59.44
2019-01-15T03:29:15.477Z,59.33
2019-01-15T03:31:41.675Z,59.27
2019-01-15T03:34:09.541Z,59.15
2019-01-15T03:36:35.489Z,59.01
2019-01-15T03:39:01.480Z,59.16
2019-01-15T03:41:27.424Z,59.22
2019-01-15T03:43:54.234Z,58.82
2019-01-15T03:46:20.686Z,58.76
2019-01-15T03:48:46.639Z,58.82
2019-01-15T03:51:12.586Z,58.78
2019-01-15T03:53:40.308Z,58.68
2019-01-15T03:56:06.248Z,58.73
2019-01-15T03:58:32.207Z,58.90
2019-01-15T04:00:59.776Z,58.87
2019-01-15T04:03:26.424Z,58.82
2019-01-15T04:05:52.374Z,58.69
2019-01-15T04:08:18.397Z,58.56
2019-01-15T04:10:44.353Z,58.55
2019-01-15T04:13:11.914Z,58.75
2019-01-15T04:15:37.936Z,58.78
2019-01-15T04:18:03.940Z,58.74
2019-01-15T04:20:30.560Z,58.89
2019-01-15T04:22:56.584Z,59.07
2019-01-15T04:25:22.792Z,59.23
2019-01-15T04:27:48.962Z,59.57
2019-01-15T04:30:22.892Z,59.92
2019-01-15T04:32:48.841Z,60.06
2019-01-15T04:35:16.859Z,60.40
2019-01-15T04:37:43.041Z,60.67
2019-01-15T04:40:12.389Z,61.00
2019-01-15T04:42:38.336Z,61.17
2019-01-15T04:45:08.134Z,61.33
2019-01-15T04:47:34.286Z,61.51
2019-01-15T04:50:00.449Z,61.69
2019-01-15T04:52:27.965Z,61.76
2019-01-15T04:54:53.910Z,61.69
2019-01-15T04:57:21.952Z,61.73
2019-01-15T04:59:48.155Z,61.88
2019-01-15T05:02:14.116Z,61.79
2019-01-15T05:04:40.673Z,61.77
2019-01-15T05:07:06.662Z,61.79
2019-01-15T05:09:33.048Z,61.94
2019-01-15T05:11:59.005Z,62.00
2019-01-15T05:14:25.022Z,62.21
2019-01-15T05:16:50.963Z,62.24
2019-01-15T05:19:17.044Z,62.35
2019-01-15T05:21:43.359Z,62.40
2019-01-15T05:24:09.387Z,62.53
2019-01-15T05:26:35.348Z,62.73
2019-01-15T05:29:01.352Z,63.11
2019-01-15T05:31:27.322Z,63.20
2019-01-15T05:33:53.342Z,63.34
2019-01-15T05:36:19.477Z,63.38
2019-01-15T05:38:45.424Z,63.76
2019-01-15T05:41:11.356Z,63.97
2019-01-15T05:43:37.339Z,64.23
2019-01-15T05:46:03.692Z,64.29
2019-01-15T05:48:31.554Z,64.34
2019-01-15T05:50:59.444Z,64.36
2019-01-15T05:53:25.684Z,64.42
2019-01-15T05:55:53.855Z,64.38
2019-01-15T05:58:19.989Z,64.38
2019-01-15T06:00:45.938Z,64.37
2019-01-15T06:03:13.093Z,64.47
2019-01-15T06:05:39.903Z,64.41
2019-01-15T06:08:06.368Z,64.49
2019-01-15T06:10:33.022Z,64.49
2019-01-15T06:12:59.204Z,64.52
2019-01-15T06:15:27.053Z,64.23
2019-01-15T06:17:52.995Z,63.92
2019-01-15T06:20:19.902Z,63.80
2019-01-15T06:22:46.283Z,63.63
2019-01-15T06:25:13.153Z,63.35
2019-01-15T06:27:39.148Z,63.23
2019-01-15T06:30:12.053Z,63.12
2019-01-15T06:32:38.111Z,63.00
2019-01-15T06:35:04.586Z,62.88
2019-01-15T06:37:30.531Z,62.58
2019-01-15T06:39:56.485Z,62.43
2019-01-15T06:42:22.561Z,62.16
2019-01-15T06:44:48.442Z,62.06
2019-01-15T06:47:15.500Z,62.00
2019-01-15T06:49:41.590Z,61.99
2019-01-15T06:52:07.931Z,61.86
2019-01-15T06:54:33.894Z,61.73
2019-01-15T06:56:59.988Z,61.80
2019-01-15T06:59:25.945Z,61.93
2019-01-15T07:01:51.957Z,61.98
2019-01-15T07:04:17.998Z,62.10
2019-01-15T07:06:43.940Z,62.80
2019-01-15T07:09:10.292Z,63.34
2019-01-15T07:11:36.267Z,62.78
2019-01-15T07:14:02.217Z,62.88
2019-01-15T07:16:28.669Z,63.08
2019-01-15T07:18:54.666Z,63.25
2019-01-15T07:21:20.906Z,63.29
2019-01-15T07:23:48.764Z,63.20
2019-01-15T07:26:15.258Z,63.21
2019-01-15T07:28:42.542Z,63.37
2019-01-15T07:31:08.803Z,63.04
2019-01-15T07:33:34.818Z,63.02
2019-01-15T07:36:01.742Z,63.13
2019-01-15T07:38:27.687Z,63.11
2019-01-15T07:40:53.691Z,63.16
2019-01-15T07:43:20.137Z,63.25
2019-01-15T07:45:46.086Z,63.19
2019-01-15T07:48:12.200Z,63.13
2019-01-15T07:50:38.144Z,63.05
2019-01-15T07:53:04.480Z,62.93
2019-01-15T07:55:30.480Z,62.92
2019-01-15T07:57:57.781Z,62.80
2019-01-15T08:00:25.368Z,62.76
2019-01-15T08:02:52.852Z,62.70
2019-01-15T08:05:21.359Z,62.67
2019-01-15T08:07:48.564Z,62.48
2019-01-15T08:10:16.486Z,62.42
2019-01-15T08:12:42.548Z,62.30
2019-01-15T08:15:11.705Z,62.17
2019-01-15T08:17:38.491Z,61.81
2019-01-15T08:20:08.232Z,61.68
2019-01-15T08:22:34.176Z,61.45
2019-01-15T08:25:00.269Z,61.39
2019-01-15T08:27:26.210Z,61.52
2019-01-15T08:29:52.811Z,61.47
2019-01-15T08:32:20.075Z,61.33
2019-01-15T08:34:46.573Z,61.31
2019-01-15T08:37:12.583Z,61.39
2019-01-15T08:39:38.580Z,61.46
2019-01-15T08:42:05.029Z,61.46
2019-01-15T08:44:31.694Z,61.31
2019-01-15T08:46:57.676Z,61.05
2019-01-15T08:49:23.611Z,60.77
2019-01-15T08:51:50.284Z,60.39
2019-01-15T08:54:16.714Z,60.39
2019-01-15T08:56:43.455Z,60.54
2019-01-15T08:59:09.403Z,60.56
2019-01-15T09:01:37.287Z,60.45
2019-01-15T09:04:05.118Z,60.36
2019-01-15T09:06:31.108Z,60.34
2019-01-15T09:08:57.204Z,60.25
2019-01-15T09:11:23.160Z,60.17
2019-01-15T09:13:49.123Z,60.06
2019-01-15T09:16:15.444Z,59.98
2019-01-15T09:18:41.487Z,59.99
2019-01-15T09:21:07.438Z,59.92
2019-01-15T09:23:33.432Z,59.79
2019-01-15T09:25:59.381Z,59.79
2019-01-15T09:28:27.031Z,59.88
2019-01-15T09:30:54.221Z,59.23
2019-01-15T09:33:20.560Z,58.80
2019-01-15T09:35:46.515Z,58.62
2019-01-15T09:38:13.140Z,58.36
2019-01-15T09:40:39.319Z,57.92
2019-01-15T09:43:07.181Z,57.87
2019-01-15T09:45:36.055Z,56.96
2019-01-15T09:48:04.043Z,56.68
2019-01-15T09:50:30.183Z,56.46
2019-01-15T09:52:56.594Z,56.30
2019-01-15T09:55:22.549Z,55.79
2019-01-15T09:57:48.679Z,55.59
2019-01-15T10:00:17.801Z,55.43
2019-01-15T10:02:43.750Z,55.28
2019-01-15T10:05:10.119Z,54.82
2019-01-15T10:07:36.132Z,54.57
2019-01-15T10:10:05.903Z,54.35
2019-01-15T10:12:31.849Z,53.87
2019-01-15T10:14:57.845Z,54.21
2019-01-15T10:17:23.985Z,54.44
2019-01-15T10:19:50.040Z,54.49
2019-01-15T10:22:16.244Z,54.63
2019-01-15T10:24:42.193Z,54.58
2019-01-15T10:27:08.677Z,54.57
2019-01-15T10:29:35.072Z,54.49
2019-01-15T10:32:14.770Z,54.43
2019-01-15T10:34:41.267Z,54.34
2019-01-15T10:37:08.094Z,54.55
2019-01-15T10:39:34.966Z,54.71
2019-01-15T10:42:00.968Z,54.72
2019-01-15T10:44:27.366Z,54.46
2019-01-15T10:46:53.671Z,54.30
2019-01-15T10:49:20.061Z,54.19
2019-01-15T10:51:46.110Z,54.20
2019-01-15T10:54:12.132Z,54.63
2019-01-15T10:56:38.117Z,54.61
2019-01-15T10:59:04.062Z,54.77
2019-01-15T11:01:30.197Z,54.84
2019-01-15T11:03:56.221Z,55.19
2019-01-15T11:06:25.775Z,55.27
2019-01-15T11:08:51.791Z,55.34
2019-01-15T11:11:17.784Z,55.63
2019-01-15T11:13:43.836Z,55.90
2019-01-15T11:16:09.798Z,56.15
2019-01-15T11:18:35.779Z,56.46
2019-01-15T11:21:01.722Z,56.61
2019-01-15T11:23:27.678Z,56.49
2019-01-15T11:25:53.718Z,56.48
2019-01-15T11:28:19.658Z,56.42
2019-01-15T11:30:45.624Z,56.39
2019-01-15T11:33:11.588Z,56.44
2019-01-15T11:35:37.532Z,56.41
2019-01-15T11:38:03.666Z,56.56
2019-01-15T11:40:31.352Z,56.23
2019-01-15T11:42:59.097Z,55.94
2019-01-15T11:45:25.144Z,55.47
2019-01-15T11:47:52.055Z,55.37
2019-01-15T11:50:20.193Z,55.02
2019-01-15T11:52:46.239Z,54.66
2019-01-15T11:55:12.914Z,54.58
2019-01-15T11:57:38.931Z,54.64
2019-01-15T12:00:22.208Z,54.60
2019-01-15T12:02:50.310Z,54.48
2019-01-15T12:05:18.196Z,54.40
2019-01-15T12:08:02.722Z,54.35
2019-01-15T12:10:36.355Z,53.92
2019-01-15T12:13:20.955Z,53.59
2019-01-15T12:15:48.809Z,53.60
2019-01-15T12:18:33.437Z,53.34
2019-01-15T12:21:01.296Z,53.34
2019-01-15T12:23:44.324Z,53.11
2019-01-15T12:26:24.249Z,52.95
2019-01-15T12:28:54.641Z,52.46
2019-01-15T12:31:28.349Z,52.38
2019-01-15T12:33:56.255Z,52.11
2019-01-15T12:36:29.717Z,51.82
2019-01-15T12:39:09.385Z,52.09
2019-01-15T12:41:46.316Z,51.35
2019-01-15T12:44:30.613Z,49.72
2019-01-15T12:47:01.041Z,49.10
2019-01-15T12:49:34.953Z,47.45
2019-01-15T12:52:05.570Z,45.97
2019-01-15T12:54:42.588Z,44.99
2019-01-15T12:57:22.234Z,44.34
2019-01-15T12:59:59.137Z,43.63
2019-01-15T13:02:26.985Z,44.62
2019-01-15T13:08:11.322Z,45.88
2019-01-15T13:10:40.059Z,46.28
2019-01-15T13:13:14.126Z,47.29
2019-01-15T13:15:45.566Z,47.60
2019-01-15T13:18:21.284Z,48.28
2019-01-15T13:20:49.239Z,48.97
2019-01-15T13:23:32.263Z,49.29
2019-01-15T13:26:03.093Z,49.87
2019-01-15T13:28:40.047Z,49.94
2019-01-15T13:31:13.964Z,50.16
2019-01-15T13:33:50.874Z,50.18
2019-01-15T13:36:18.763Z,50.39
2019-01-15T13:39:03.532Z,50.41
2019-01-15T13:41:43.498Z,50.54
2019-01-15T13:44:17.396Z,50.92
2019-01-15T13:46:57.431Z,51.22
2019-01-15T13:49:34.005Z,51.04
2019-01-15T13:52:10.810Z,50.82
2019-01-15T13:54:38.681Z,51.06
2019-01-15T13:57:06.521Z,51.06
2019-01-15T13:59:50.992Z,50.83
2019-01-15T14:02:21.603Z,51.07
2019-01-15T14:04:58.388Z,51.14
2019-01-15T14:07:37.862Z,51.21
2019-01-15T14:10:27.868Z,51.45
2019-01-15T14:12:55.724Z,51.60
2019-01-15T14:15:29.883Z,51.81
2019-01-15T14:18:03.724Z,51.96
2019-01-15T14:20:31.907Z,52.20
2019-01-15T14:23:09.785Z,52.48
2019-01-15T14:25:56.290Z,52.72
2019-01-15T14:28:40.818Z,52.99
2019-01-15T14:31:18.032Z,53.42
2019-01-15T14:33:54.456Z,54.03
2019-01-15T14:36:34.152Z,54.57
2019-01-15T14:39:14.548Z,54.83
2019-01-15T14:41:45.374Z,55.16
2019-01-15T14:44:25.631Z,55.94
2019-01-15T14:46:56.630Z,56.16
2019-01-15T14:49:30.537Z,56.52
2019-01-15T14:52:10.390Z,56.44
2019-01-15T14:54:41.037Z,56.87
2019-01-15T14:57:24.060Z,57.16
2019-01-15T14:59:51.917Z,57.74
2019-01-15T15:02:19.779Z,57.65
2019-01-15T15:05:04.269Z,58.17
2019-01-15T15:07:35.010Z,58.34
2019-01-15T15:10:21.019Z,58.45
2019-01-15T15:12:51.911Z,58.50
2019-01-15T15:15:19.865Z,58.79
2019-01-15T15:18:06.937Z,59.01
2019-01-15T15:20:50.823Z,59.43
2019-01-15T15:23:31.584Z,60.49
2019-01-15T15:26:05.635Z,62.52
2019-01-15T15:28:42.643Z,62.92
2019-01-15T15:31:19.350Z,65.53
2019-01-15T15:33:56.844Z,67.54
2019-01-15T15:36:30.972Z,69.95
2019-01-15T15:38:58.884Z,70.72
2019-01-15T15:41:41.866Z,71.79
2019-01-15T15:44:17.589Z,72.52
2019-01-15T15:46:49.521Z,74.04
2019-01-15T15:49:34.514Z,73.93
2019-01-15T15:52:05.638Z,74.35
2019-01-15T15:54:48.859Z,74.95
2019-01-15T15:57:28.474Z,75.99
2019-01-15T15:59:56.413Z,76.26
2019-01-15T16:02:24.296Z,76.26
2019-01-15T16:05:08.776Z,76.84
2019-01-15T16:07:53.242Z,76.69
2019-01-15T16:10:39.373Z,77.00
2019-01-15T16:13:23.821Z,77.17
2019-01-15T16:16:09.928Z,77.60
2019-01-15T16:18:49.593Z,77.17
2019-01-15T16:21:17.482Z,78.10
2019-01-15T16:23:54.217Z,77.77
2019-01-15T16:26:38.509Z,77.30
2019-01-15T16:29:06.357Z,77.47
2019-01-15T16:31:34.213Z,77.54
2019-01-15T16:34:11.013Z,77.62
2019-01-15T16:36:53.671Z,78.32
2019-01-15T16:39:38.139Z,78.04
2019-01-15T16:42:14.970Z,77.88
2019-01-15T16:44:42.902Z,77.47
2019-01-15T16:47:16.822Z,77.96
2019-01-15T16:50:01.612Z,77.71
2019-01-15T16:52:44.612Z,77.82
2019-01-15T16:55:28.084Z,77.38
2019-01-15T16:58:05.059Z,76.84
2019-01-15T17:00:49.735Z,76.91
2019-01-15T17:03:23.414Z,77.23
2019-01-15T17:05:54.055Z,77.59
2019-01-15T17:08:30.795Z,77.80
2019-01-15T17:11:06.914Z,78.39
2019-01-15T17:13:37.592Z,78.84
2019-01-15T17:16:14.959Z,79.16
2019-01-15T17:18:42.824Z,79.62
2019-01-15T17:21:19.324Z,79.44
2019-01-15T17:23:52.759Z,79.23
2019-01-15T17:26:20.828Z,79.74
2019-01-15T17:29:04.968Z,79.81
2019-01-15T17:31:38.720Z,79.86
2019-01-15T17:34:09.921Z,78.77
2019-01-15T17:36:37.778Z,78.95
2019-01-15T17:39:08.683Z,78.19
2019-01-15T17:41:36.554Z,78.54
2019-01-15T17:44:05.007Z,79.41
2019-01-15T17:46:41.042Z,79.25
2019-01-15T17:49:08.540Z,79.41
2019-01-15T17:51:48.765Z,80.00
2019-01-15T17:54:22.468Z,80.40
2019-01-15T17:56:53.148Z,80.21
2019-01-15T17:59:23.632Z,79.93
2019-01-15T18:02:00.576Z,79.81
2019-01-15T18:04:37.501Z,80.06
2019-01-15T18:07:17.442Z,80.39
2019-01-15T18:09:51.283Z,80.80
2019-01-15T18:12:20.531Z,80.87
2019-01-15T18:14:57.326Z,80.85
2019-01-15T18:17:34.097Z,80.70
2019-01-15T18:20:10.856Z,80.67
2019-01-15T18:22:39.095Z,80.75
2019-01-15T18:25:10.343Z,80.64
2019-01-15T18:27:56.344Z,80.55
2019-01-15T18:30:29.885Z,80.85
2019-01-15T18:33:00.795Z,81.04
2019-01-15T18:35:34.235Z,80.14
2019-01-15T18:38:07.920Z,80.06
2019-01-15T18:40:38.553Z,79.98
2019-01-15T18:43:15.684Z,79.88
2019-01-15T18:45:55.721Z,79.71
2019-01-15T18:48:35.524Z,78.92
2019-01-15T18:51:03.389Z,79.73
2019-01-15T18:53:31.426Z,80.03
2019-01-15T18:56:13.089Z,80.18
2019-01-15T18:58:49.763Z,80.23
2019-01-15T19:01:23.662Z,79.99
2019-01-15T19:03:51.623Z,80.14
2019-01-15T19:06:25.823Z,80.48
2019-01-15T19:09:05.966Z,79.68
2019-01-15T19:11:36.373Z,79.99
2019-01-15T19:14:07.515Z,80.65
2019-01-15T19:16:38.163Z,79.92
2019-01-15T19:19:06.936Z,80.13
2019-01-15T19:21:34.809Z,80.94
2019-01-15T19:24:11.602Z,81.09
2019-01-15T19:26:41.406Z,81.11
2019-01-15T19:29:27.439Z,81.22
2019-01-15T19:31:55.412Z,81.77
2019-01-15T19:34:28.995Z,81.73
2019-01-15T19:36:56.848Z,82.18
2019-01-15T19:39:27.246Z,83.02
2019-01-15T19:42:06.945Z,83.53
2019-01-15T19:44:34.807Z,85.07
2019-01-15T19:47:10.652Z,85.89
2019-01-15T19:49:37.993Z,86.61
2019-01-15T19:52:11.890Z,86.56
2019-01-15T19:54:57.408Z,87.05
2019-01-15T19:57:28.290Z,87.60
2019-01-15T20:00:11.352Z,88.43
2019-01-15T20:02:51.164Z,88.37
2019-01-15T20:05:22.124Z,88.56
2019-01-15T20:07:58.852Z,88.38
2019-01-15T20:10:27.958Z,88.12
2019-01-15T20:13:08.198Z,89.06
2019-01-15T20:15:44.782Z,89.27
2019-01-15T20:18:15.495Z,89.52
2019-01-15T20:20:52.471Z,89.89
2019-01-15T20:23:36.073Z,89.69
2019-01-15T20:26:13.270Z,89.18
2019-01-15T20:28:41.131Z,89.16
2019-01-15T20:31:26.135Z,89.22
2019-01-15T20:34:02.841Z,89.20
2019-01-15T20:36:39.591Z,89.37
2019-01-15T20:39:09.015Z,89.38
2019-01-15T20:41:42.966Z,89.48
2019-01-15T20:44:19.307Z,89.47
2019-01-15T20:46:50.174Z,88.10
2019-01-15T20:49:34.802Z,88.03
2019-01-15T20:52:02.776Z,87.81
2019-01-15T20:54:30.622Z,87.16
2019-01-15T20:57:07.366Z,86.31
2019-01-15T20:59:38.168Z,85.61
2019-01-15T21:02:21.153Z,85.16
2019-01-15T21:05:01.075Z,84.57
2019-01-15T21:07:38.084Z,84.25
2019-01-15T21:10:31.560Z,84.02
2019-01-15T21:13:12.352Z,83.71
2019-01-15T21:15:49.361Z,83.62
2019-01-15T21:18:23.387Z,83.68
2019-01-15T21:21:01.543Z,83.31
2019-01-15T21:23:46.134Z,83.06
2019-01-15T21:26:14.175Z,82.79
2019-01-15T21:28:42.056Z,82.68
2019-01-15T21:31:10.051Z,82.43
2019-01-15T21:33:50.172Z,82.37
2019-01-15T21:36:26.678Z,82.45
2019-01-15T21:38:57.993Z,82.63
2019-01-15T21:41:38.092Z,82.66
2019-01-15T21:44:09.071Z,82.70
2019-01-15T21:46:53.752Z,82.56
2019-01-15T21:49:30.506Z,82.35
2019-01-15T21:52:17.755Z,82.45
2019-01-15T21:55:04.912Z,82.54
2019-01-15T21:57:35.656Z,82.54
2019-01-15T22:00:20.285Z,82.34
2019-01-15T22:03:04.848Z,82.26
2019-01-15T22:05:35.675Z,82.09
2019-01-15T22:08:20.675Z,81.95
2019-01-15T22:11:00.361Z,81.94
2019-01-15T22:13:31.093Z,81.91
2019-01-15T22:15:59.095Z,81.84
2019-01-15T22:18:36.386Z,81.98
2019-01-15T22:21:20.940Z,82.06
2019-01-15T22:23:54.785Z,81.93
2019-01-15T22:26:39.205Z,81.95
2019-01-15T22:29:13.235Z,81.89
2019-01-15T22:31:57.536Z,81.84
2019-01-15T22:34:29.239Z,81.57
2019-01-15T22:37:13.905Z,81.43
2019-01-15T22:39:50.986Z,81.16
2019-01-15T22:42:21.961Z,80.97
2019-01-15T22:44:52.436Z,81.01
2019-01-15T22:47:20.424Z,81.11
2019-01-15T22:49:54.231Z,81.14
2019-01-15T22:52:31.099Z,81.14
2019-01-15T22:54:59.106Z,81.40
2019-01-15T22:57:32.894Z,81.53
2019-01-15T23:00:15.994Z,81.55
2019-01-15T23:02:46.650Z,81.67
2019-01-15T23:05:20.158Z,81.72
2019-01-15T23:07:53.884Z,81.98
2019-01-15T23:10:30.733Z,81.92
2019-01-15T23:12:58.633Z,81.94
2019-01-15T23:15:29.451Z,82.14
2019-01-15T23:18:09.529Z,82.14
2019-01-15T23:20:49.556Z,81.85
2019-01-15T23:23:26.636Z,81.69
2019-01-15T23:26:02.260Z,81.48
2019-01-15T23:28:32.880Z,81.60
2019-01-15T23:31:09.509Z,81.86
2019-01-15T23:33:37.681Z,82.23
2019-01-15T23:36:22.328Z,82.75
2019-01-15T23:39:09.131Z,83.16
2019-01-15T23:41:42.704Z,83.68
2019-01-15T23:47:21.335Z,84.16
2019-01-15T23:50:04.520Z,84.39
2019-01-15T23:52:38.007Z,84.40
2019-01-15T23:55:24.017Z,84.60
2019-01-15T23:58:04.810Z,84.59
